Tuesday, May 24, 2016, 11:09 PM EDT

KPOU, Poughkeepsie Dutchess Cty

Location: Wappingers Falls, NY, United States Lat: 41.633
Local Time: 11:09 PM EDT ( 3:09 GMT) Lon: -73.883
Time Zone: US/Eastern Elev: 167 ft

Show me the last for .
Show Decoded

2016-05-24 22:53 METAR KPOU 250253Z 00000KT 10SM CLR 15/13 A2998 RMK AO2 SLP149 T01500133 53013 =
2016-05-24 21:53 METAR KPOU 250153Z 00000KT 10SM BKN120 17/14 A2997 RMK AO2 SLP145 T01670144 =
2016-05-24 20:53 METAR KPOU 250053Z AUTO 00000KT 10SM OVC110 17/15 A2995 RMK AO2 SLP137 T01720150
                 TSNO =
2016-05-24 19:53 METAR KPOU 242353Z AUTO 00000KT 10SM OVC100 18/15 A2994 RMK AO2 RAB05E39 SLP137
                 P0000 60000 T01830150 10233 20183 53016 TSNO =
2016-05-24 18:53 METAR KPOU 242253Z AUTO 00000KT 10SM BKN100 OVC120 20/13 A2992 RMK AO2 SLP128
                 T02000128 TSNO =
2016-05-24 17:53 METAR KPOU 242153Z AUTO 00000KT 10SM OVC100 21/13 A2991 RMK AO2 SLP124 T02110128
                 TSNO =
2016-05-24 16:53 METAR KPOU 242053Z AUTO 36007KT 10SM BKN110 22/12 A2990 RMK AO2 SLP120 60000
                 T02170117 58004 TSNO =
2016-05-24 15:53 METAR KPOU 241953Z AUTO 36010G15KT 10SM FEW070 BKN095 23/12 A2991 RMK AO2 SLP124
                 T02330122 TSNO =
2016-05-24 14:53 METAR KPOU 241853Z 34008KT 10SM OVC080 21/12 A2991 RMK AO2 RAB28E37 SLP123 P0000
                 T02060122 =
2016-05-24 13:53 METAR KPOU 241753Z 01004KT 10SM OVC100 20/12 A2991 RMK AO2 SLP124 60004
                 T02000122 10206 20150 58001 =
2016-05-24 12:53 METAR KPOU 241653Z VRB04KT 10SM OVC100 19/13 A2991 RMK AO2 SLP125 T01890128 =
2016-05-24 11:53 METAR KPOU 241553Z 30008KT 10SM FEW014 BKN100 19/14 A2991 RMK AO2 SLP125
                 T01890144 =
2016-05-24 10:53 METAR KPOU 241453Z 32004KT 10SM FEW008 18/14 A2991 RMK AO2 SLP125 60004
                 T01830144 50004 =
2016-05-24 09:55 METAR KPOU 241355Z 00000KT 10SM BKN005 BKN070 OVC085 16/13 A2992 RMK AO2
                 T01610133 =
2016-05-24 09:53 METAR KPOU 241353Z 00000KT 10SM BKN080 OVC095 16/14 A2992 RMK AO2 SLP128
                 T01610139 =
2016-05-24 08:53 METAR KPOU 241253Z 29004KT 10SM BKN080 OVC095 16/13 A2992 RMK AO2 RAE53 SLP127
                 P0004 T01560133 =
2016-05-24 07:53 METAR KPOU 241153Z 09009KT 2SM -RA BR FEW005 OVC080 15/13 A2990 RMK AO2 SLP120
                 P0003 60018 70018 T01500133 10167 20144 53006 =
2016-05-24 07:12 METAR KPOU 241112Z 00000KT 2SM -RA BR FEW006 FEW060 OVC080 14/13 A2988 RMK AO2
                 P0001 T01440133 =
2016-05-24 06:53 METAR KPOU 241053Z 24006KT 2 1/2SM -RA BR FEW060 OVC075 14/13 A2987 RMK AO2
                 RAB10 SLP110 P0005 T01440128 =
2016-05-24 06:49 METAR KPOU 241049Z AUTO 25007KT 2SM RA BR OVC070 14/13 A2987 RMK AO2 RAB10 P0005
                 TSNO =
2016-05-24 05:53 METAR KPOU 240953Z AUTO 00000KT 10SM OVC080 14/12 A2988 RMK AO2 RAB08E27 SLP114
                 P0000 T01440122 TSNO =
2016-05-24 04:53 METAR KPOU 240853Z AUTO 03003KT 10SM OVC080 14/12 A2988 RMK AO2 RAE42 SLP114
                 P0002 60010 T01440122 55006 TSNO =
2016-05-24 03:53 METAR KPOU 240753Z AUTO 23006KT 8SM -RA BKN070 OVC080 14/12 A2987 RMK AO2 SLP112
                 P0006 T01440122 TSNO =
2016-05-24 02:53 METAR KPOU 240653Z AUTO 14003KT 8SM -RA OVC080 16/12 A2990 RMK AO2 RAB0559E15B33
                 SLP121 P0002 T01560117 TSNO =
2016-05-24 01:53 METAR KPOU 240553Z AUTO 11003KT 10SM BKN070 OVC090 17/10 A2990 RMK AO2 SLP120
                 T01670100 10222 20167 55003 TSNO =
2016-05-24 00:53 METAR KPOU 240453Z AUTO 14003KT 10SM OVC100 18/09 A2989 RMK AO2 SLP117 T01780094
                 402780089 TSNO =
2016-05-23 23:53 METAR KPOU 240353Z AUTO 00000KT 10SM OVC110 18/10 A2991 RMK AO2 SLP122 T01780100
                 TSNO =

Support USWX by starting your Amazon purchase here.